Time;durP1;ratioP1;P1;durP2;ratioP2;P2;SDS_P1;SDS_P2;PMS_P1;PMS_P2;Temp;Humidity;BMP_temperature;BMP_pressure;BME280_temperature;BME280_humidity;BME280_pressure;Samples;Min_cycle;Max_cycle;Signal;HPM_P1;HPM_P2
2023/01/14 00:00:20;;;;;;;7.88;1.88;;;;;;;-148.88;100.00;76329.75;5019451;28;20029;-85
2023/01/14 00:02:45;;;;;;;10.20;2.10;;;;;;;-148.88;100.00;76337.88;5020414;28;20436;-84
2023/01/14 00:05:11;;;;;;;7.68;1.83;;;;;;;-148.88;100.00;76354.13;5037412;28;20040;-85
2023/01/14 00:07:36;;;;;;;5.72;1.90;;;;;;;-148.88;100.00;76358.19;5037253;28;20112;-85
2023/01/14 00:10:02;;;;;;;10.02;2.42;;;;;;;-148.88;100.00;76343.97;5019887;28;20029;-85
2023/01/14 00:12:27;;;;;;;4.35;1.67;;;;;;;-148.88;100.00;76354.13;5038067;28;20413;-85
2023/01/14 00:14:52;;;;;;;2.97;1.25;;;;;;;-148.88;100.00;76354.13;5037985;28;20100;-86
2023/01/14 00:17:18;;;;;;;13.60;2.00;;;;;;;-148.88;100.00;76354.13;5038734;28;20021;-86
2023/01/14 00:19:43;;;;;;;6.53;1.35;;;;;;;-148.88;100.00;76350.06;5026591;28;20060;-86
2023/01/14 00:22:08;;;;;;;6.25;1.35;;;;;;;-148.88;100.00;76358.19;5024762;28;20037;-86
2023/01/14 00:24:34;;;;;;;7.13;1.65;;;;;;;-148.88;100.00;76362.25;5025160;28;20044;-86
2023/01/14 00:26:59;;;;;;;6.40;2.10;;;;;;;-148.88;100.00;76356.16;5025572;28;20030;-86
2023/01/14 00:29:27;;;;;;;7.05;1.88;;;;;;;-148.88;100.00;76376.47;5024932;28;20029;-86
2023/01/14 00:31:54;;;;;;;7.28;1.73;;;;;;;-148.88;100.00;76374.44;5042850;28;20060;-86
2023/01/14 00:34:20;;;;;;;7.55;2.00;;;;;;;-148.88;100.00;76366.31;5024200;28;20014;-85
2023/01/14 00:36:46;;;;;;;5.55;1.70;;;;;;;-148.88;100.00;76376.47;5039545;28;20033;-87
2023/01/14 00:39:12;;;;;;;7.38;1.92;;;;;;;-148.88;100.00;76374.44;5018870;28;20083;-85
2023/01/14 00:41:38;;;;;;;7.25;1.80;;;;;;;-148.88;100.00;76372.41;5036566;28;20021;-86
2023/01/14 00:44:03;;;;;;;6.05;1.55;;;;;;;-148.88;100.00;76388.66;5018812;28;20408;-85
2023/01/14 00:46:32;;;;;;;5.43;1.45;;;;;;;-148.88;100.00;76374.44;5036710;28;20028;-86
2023/01/14 00:48:59;;;;;;;6.30;1.95;;;;;;;-148.88;100.00;76374.44;5019780;28;20577;-85
2023/01/14 00:51:24;;;;;;;3.05;1.17;;;;;;;-148.88;100.00;76372.41;5037344;28;20087;-86
2023/01/14 00:53:50;;;;;;;5.85;1.50;;;;;;;-148.88;100.00;76382.56;5020234;28;20386;-86
2023/01/14 00:56:18;;;;;;;9.55;1.98;;;;;;;-148.88;100.00;76394.75;5039433;28;20052;-86
2023/01/14 00:58:44;;;;;;;6.75;2.00;;;;;;;-148.88;100.00;76400.84;5039296;28;20366;-86
2023/01/14 01:01:09;;;;;;;12.18;2.45;;;;;;;-148.88;100.00;76390.69;5020844;28;20021;-85
2023/01/14 01:03:41;;;;;;;6.43;1.60;;;;;;;-148.88;100.00;76398.81;5039241;28;20033;-85
2023/01/14 01:06:07;;;;;;;7.65;1.70;;;;;;;-148.88;100.00;76394.75;5046778;23;20041;-87
2023/01/14 01:08:32;;;;;;;6.05;1.40;;;;;;;-148.88;100.00;76402.88;5039298;28;20021;-86
2023/01/14 01:10:58;;;;;;;4.72;1.60;;;;;;;-148.88;100.00;76396.78;5037894;28;20029;-86
2023/01/14 01:13:24;;;;;;;7.43;1.92;;;;;;;-148.88;100.00;76396.78;5037571;28;20037;-86
2023/01/14 01:15:52;;;;;;;4.00;1.42;;;;;;;-148.88;100.00;76402.88;5038230;28;20378;-87
2023/01/14 01:18:18;;;;;;;7.70;1.90;;;;;;;-148.88;100.00;76394.75;5038392;28;20025;-86
2023/01/14 01:20:43;;;;;;;6.78;1.50;;;;;;;-148.88;100.00;76406.94;5039423;28;20021;-85
2023/01/14 01:23:11;;;;;;;7.03;1.83;;;;;;;-148.88;100.00;76406.94;5035175;28;20029;-85
2023/01/14 01:25:37;;;;;;;9.63;2.08;;;;;;;-148.88;100.00;76406.94;5036924;28;20442;-86
2023/01/14 01:28:02;;;;;;;4.80;1.83;;;;;;;-148.88;100.00;76439.47;5037532;28;20523;-85
2023/01/14 01:30:28;;;;;;;5.30;1.55;;;;;;;-148.88;100.00;76441.50;5039699;28;20032;-87
2023/01/14 01:32:54;;;;;;;8.63;1.90;;;;;;;-148.88;100.00;76437.44;5035668;28;20029;-86
2023/01/14 01:35:20;;;;;;;9.60;2.42;;;;;;;-148.88;100.00;76453.69;5033810;28;20106;-86
2023/01/14 01:37:45;;;;;;;6.45;1.50;;;;;;;-148.88;100.00;76451.66;5034655;28;20466;-87
2023/01/14 01:40:12;;;;;;;8.85;2.25;;;;;;;-148.88;100.00;76465.88;5033997;28;20025;-86
2023/01/14 01:42:54;;;;;;;9.55;3.72;;;;;;;-148.88;100.00;76459.78;5033978;28;20027;-86
2023/01/14 01:45:41;;;;;;;7.85;1.90;;;;;;;-148.88;100.00;76467.91;5033910;28;20030;-87
2023/01/14 01:48:12;;;;;;;10.65;2.28;;;;;;;-148.88;100.00;76463.84;5034895;28;20425;-87
2023/01/14 01:50:39;;;;;;;8.82;2.80;;;;;;;-148.88;100.00;76480.09;5032978;28;20025;-86
2023/01/14 01:53:06;;;;;;;7.63;1.92;;;;;;;-148.88;100.00;76469.94;5034239;28;20490;-85
2023/01/14 01:55:35;;;;;;;8.25;2.17;;;;;;;-148.88;100.00;76459.78;5036039;28;20059;-87
2023/01/14 01:58:01;;;;;;;6.88;2.28;;;;;;;-148.88;100.00;76447.59;5034867;28;20025;-85
2023/01/14 02:00:27;;;;;;;9.18;2.67;;;;;;;-148.88;100.00;76447.59;5034677;28;20045;-85
2023/01/14 02:03:02;;;;;;;12.93;3.55;;;;;;;-148.88;100.00;76423.19;5035103;28;20044;-87
2023/01/14 02:05:29;;;;;;;13.48;2.33;;;;;;;-148.88;100.00;76411.00;5033906;28;20034;-85
2023/01/14 02:07:57;;;;;;;7.95;2.25;;;;;;;-148.88;100.00;76398.81;5034121;28;20030;-85
2023/01/14 02:10:41;;;;;;;13.95;2.47;;;;;;;-148.88;100.00;76386.63;5050547;28;20033;-85
2023/01/14 02:13:17;;;;;;;11.68;2.78;;;;;;;-148.88;100.00;76390.69;5034954;28;20163;-86
2023/01/14 02:16:04;;;;;;;8.13;2.58;;;;;;;-148.88;100.00;76382.56;5053292;28;20401;-86
2023/01/14 02:18:48;;;;;;;15.70;3.08;;;;;;;-148.88;100.00;76374.44;5034842;28;20371;-85
2023/01/14 02:21:20;;;;;;;14.40;2.50;;;;;;;-148.88;100.00;76382.56;5033696;28;20026;-85
2023/01/14 02:24:03;;;;;;;11.35;2.60;;;;;;;-148.88;100.00;76386.63;5033673;28;20099;-84
2023/01/14 02:26:49;;;;;;;11.90;3.90;;;;;;;-148.88;100.00;76376.47;5050743;28;20087;-85
2023/01/14 02:29:30;;;;;;;12.02;2.80;;;;;;;-148.88;100.00;76370.38;5034986;28;20435;-85
2023/01/14 02:32:18;;;;;;;11.80;2.85;;;;;;;-148.88;100.00;76374.44;5050206;28;20028;-85
2023/01/14 02:34:49;;;;;;;15.77;2.45;;;;;;;-148.88;100.00;76370.38;5050637;28;20025;-86
2023/01/14 02:37:28;;;;;;;14.88;3.63;;;;;;;-148.88;100.00;76378.50;5051816;28;20029;-85
2023/01/14 02:40:29;;;;;;;12.93;2.47;;;;;;;-148.88;100.00;76360.22;5034406;28;20025;-85
2023/01/14 02:46:03;;;;;;;17.85;3.70;;;;;;;-148.88;100.00;76360.22;5035565;28;20504;-85
2023/01/14 02:48:30;;;;;;;17.10;3.85;;;;;;;-148.88;100.00;76354.13;5034235;28;20021;-85
2023/01/14 02:50:56;;;;;;;15.32;2.67;;;;;;;-148.88;100.00;76358.19;5034180;28;20021;-85
2023/01/14 02:53:21;;;;;;;10.20;2.53;;;;;;;-148.88;100.00;76346.00;5035380;28;20116;-85
2023/01/14 02:55:49;;;;;;;9.65;3.10;;;;;;;-148.88;100.00;76358.19;5035289;28;20021;-85
2023/01/14 02:58:51;;;;;;;16.02;2.88;;;;;;;-148.88;100.00;76343.97;5034300;28;20029;-86
2023/01/14 03:01:38;;;;;;;11.65;2.65;;;;;;;-148.88;100.00;76337.88;5033833;28;20017;-86
2023/01/14 03:04:35;;;;;;;23.45;3.20;;;;;;;-148.88;100.00;76337.88;5050469;28;20366;-86
2023/01/14 03:07:21;;;;;;;10.88;2.22;;;;;;;-148.88;100.00;76343.97;5032498;28;20030;-85
2023/01/14 03:09:58;;;;;;;12.80;2.97;;;;;;;-148.88;100.00;76337.88;5051157;28;20535;-85
2023/01/14 03:12:43;;;;;;;10.98;2.35;;;;;;;-148.88;100.00;76333.81;5050095;28;20497;-85
2023/01/14 03:15:14;;;;;;;11.25;2.95;;;;;;;-148.88;100.00;76337.88;5050371;28;20040;-85
2023/01/14 03:17:44;;;;;;;10.40;2.80;;;;;;;-148.88;100.00;76335.84;5050510;28;20025;-85
2023/01/14 03:20:21;;;;;;;15.13;2.85;;;;;;;-148.88;100.00;76339.91;5034154;28;20459;-85
2023/01/14 03:22:50;;;;;;;15.27;2.95;;;;;;;-148.88;100.00;76339.91;5034784;28;20397;-86
2023/01/14 03:25:17;;;;;;;15.05;2.92;;;;;;;-148.88;100.00;76350.06;5033911;28;20029;-85
2023/01/14 03:27:46;;;;;;;11.57;2.60;;;;;;;-148.88;100.00;76339.91;5034146;28;20528;-85
2023/01/14 03:30:16;;;;;;;19.83;3.97;;;;;;;-148.88;100.00;76339.91;5034102;28;20025;-85
2023/01/14 03:32:49;;;;;;;15.68;2.72;;;;;;;-148.88;100.00;76333.81;5050258;28;20393;-86
2023/01/14 03:35:24;;;;;;;14.93;2.42;;;;;;;-148.88;100.00;76343.97;5034057;28;20458;-86
2023/01/14 03:37:57;;;;;;;14.80;2.97;;;;;;;-148.88;100.00;76341.94;5033773;28;20029;-87
2023/01/14 03:40:26;;;;;;;12.52;2.42;;;;;;;-148.88;100.00;76339.91;5032684;28;20026;-86
2023/01/14 03:43:04;;;;;;;13.50;2.75;;;;;;;-148.88;100.00;76337.88;5032909;28;20030;-85
2023/01/14 03:45:34;;;;;;;13.90;2.58;;;;;;;-148.88;100.00;76325.69;5033845;28;20581;-85
2023/01/14 03:47:59;;;;;;;19.90;3.05;;;;;;;-148.88;100.00;76339.91;5033462;28;20079;-85
2023/01/14 03:50:33;;;;;;;11.27;2.45;;;;;;;-148.88;100.00;76329.75;5035169;28;20029;-85
2023/01/14 03:53:15;;;;;;;16.15;2.53;;;;;;;-148.88;100.00;76346.00;5051033;28;20021;-84
2023/01/14 03:56:04;;;;;;;9.27;2.00;;;;;;;-148.88;100.00;76346.00;5035072;28;20029;-85
2023/01/14 03:58:42;;;;;;;15.68;2.97;;;;;;;-148.88;100.00;76346.00;5034368;28;20026;-86
2023/01/14 04:01:17;;;;;;;14.00;3.17;;;;;;;-148.88;100.00;76341.94;5034413;28;20467;-85
2023/01/14 04:03:43;;;;;;;12.40;3.00;;;;;;;-148.88;100.00;76348.03;5054785;28;20089;-87
2023/01/14 04:06:11;;;;;;;11.40;3.20;;;;;;;-148.88;100.00;76352.09;5055614;28;20029;-86
2023/01/14 04:08:37;;;;;;;15.60;3.08;;;;;;;-148.88;100.00;76352.09;5036459;28;20025;-87
2023/01/14 04:11:02;;;;;;;17.95;4.53;;;;;;;-148.88;100.00;76354.13;5039577;28;20027;-86
2023/01/14 04:16:12;;;;;;;23.55;3.75;;;;;;;-148.88;100.00;76352.09;5038166;28;20451;-85
2023/01/14 04:18:37;;;;;;;17.98;3.42;;;;;;;-148.88;100.00;76374.44;5037017;28;20507;-86
2023/01/14 04:21:02;;;;;;;13.80;3.08;;;;;;;-148.88;100.00;76376.47;5038062;28;20030;-86
2023/01/14 04:23:27;;;;;;;19.95;3.60;;;;;;;-148.88;100.00;76366.31;5040716;28;20183;-85
2023/01/14 04:25:57;;;;;;;22.15;4.63;;;;;;;-148.88;100.00;76368.34;5039924;28;20024;-86
2023/01/14 04:28:22;;;;;;;22.27;3.72;;;;;;;-148.88;100.00;76372.41;5055834;28;20028;-85
2023/01/14 04:30:49;;;;;;;18.40;3.00;;;;;;;-148.88;100.00;76378.50;5038917;28;20025;-86
2023/01/14 04:33:14;;;;;;;18.73;4.93;;;;;;;-148.88;100.00;76382.56;5038349;28;20022;-84
2023/01/14 04:35:40;;;;;;;18.00;3.75;;;;;;;-148.88;100.00;76382.56;5038126;28;20067;-85
2023/01/14 04:38:05;;;;;;;13.30;3.13;;;;;;;-148.88;100.00;76390.69;5037965;28;20059;-86
2023/01/14 04:40:30;;;;;;;11.18;3.88;;;;;;;-148.88;100.00;76408.97;5038236;28;20401;-85
2023/01/14 04:42:55;;;;;;;13.02;3.33;;;;;;;-148.88;100.00;76425.25;5038238;28;20581;-85
2023/01/14 04:45:21;;;;;;;20.17;3.85;;;;;;;-148.88;100.00;76419.16;5037684;28;20453;-84
2023/01/14 04:47:50;;;;;;;27.27;4.57;;;;;;;-148.88;100.00;76421.19;5039460;28;20029;-86
2023/01/14 04:50:30;;;;;;;22.05;4.18;;;;;;;-148.88;100.00;76406.94;5035428;28;20029;-84
2023/01/14 04:52:56;;;;;;;21.38;5.57;;;;;;;-148.88;100.00;76423.19;5037677;28;20490;-84
2023/01/14 04:55:24;;;;;;;17.77;3.75;;;;;;;-148.88;100.00;76431.34;5038226;28;20033;-84
2023/01/14 04:57:58;;;;;;;19.25;4.15;;;;;;;-148.88;100.00;76431.34;5037126;28;20048;-84
2023/01/14 05:00:40;;;;;;;18.08;4.75;;;;;;;-148.88;100.00;76447.59;5037809;28;20037;-84
2023/01/14 05:03:07;;;;;;;21.83;4.47;;;;;;;-148.88;100.00;76419.16;5038013;28;20032;-84
2023/01/14 05:05:44;;;;;;;24.27;4.32;;;;;;;-148.88;100.00;76429.31;5055307;28;20033;-83
2023/01/14 05:08:11;;;;;;;18.75;4.82;;;;;;;-148.88;100.00;76431.34;5037346;28;20021;-84
2023/01/14 05:10:37;;;;;;;16.42;5.47;;;;;;;-148.88;100.00;76408.97;5037640;28;20371;-84
2023/01/14 05:13:07;;;;;;;16.95;4.53;;;;;;;-148.88;100.00;76408.97;5037106;28;20028;-84
2023/01/14 05:15:42;;;;;;;20.52;4.63;;;;;;;-148.88;100.00;76406.94;5037673;28;20025;-85
2023/01/14 05:18:11;;;;;;;22.63;5.40;;;;;;;-148.88;100.00;76386.63;5039087;28;20025;-85
2023/01/14 05:20:37;;;;;;;24.40;5.35;;;;;;;-148.88;100.00;76398.81;5042245;28;20036;-84
2023/01/14 05:23:12;;;;;;;18.60;4.55;;;;;;;-148.88;100.00;76390.69;5058847;28;20023;-85
2023/01/14 05:25:37;;;;;;;14.88;3.92;;;;;;;-148.88;100.00;76394.75;5054482;28;20406;-86
2023/01/14 05:28:08;;;;;;;28.65;5.53;;;;;;;-148.88;100.00;76392.72;5040611;28;20025;-87
2023/01/14 05:30:36;;;;;;;16.60;5.50;;;;;;;-148.88;100.00;76390.69;5040771;28;20026;-86
2023/01/14 05:33:01;;;;;;;25.20;5.38;;;;;;;-148.88;100.00;76406.94;5040641;28;20088;-86
2023/01/14 05:35:27;;;;;;;21.63;5.65;;;;;;;-148.88;100.00;76411.00;5040241;28;20049;-86
2023/01/14 05:37:52;;;;;;;23.50;4.95;;;;;;;-148.88;100.00;76404.91;5040062;28;20030;-86
2023/01/14 05:40:18;;;;;;;15.80;4.07;;;;;;;-148.88;100.00;76398.81;5039595;28;20127;-85
2023/01/14 05:45:49;;;;;;;27.45;4.68;;;;;;;-148.88;100.00;76398.81;5041084;28;20060;-85
2023/01/14 05:48:26;;;;;;;25.58;4.20;;;;;;;-148.88;100.00;76398.81;5039580;28;20033;-86
2023/01/14 05:50:56;;;;;;;20.95;3.72;;;;;;;-148.88;100.00;76402.88;5056259;28;20033;-86
2023/01/14 05:53:23;;;;;;;15.93;3.92;;;;;;;-148.88;100.00;76411.00;5040361;28;20063;-86
2023/01/14 05:55:58;;;;;;;12.00;3.30;;;;;;;-148.88;100.00;76411.00;5038619;28;20025;-86
2023/01/14 05:58:32;;;;;;;14.85;4.22;;;;;;;-148.88;100.00;76400.84;5035965;28;20022;-84
2023/01/14 06:06:54;;;;;;;31.30;4.53;;;;;;;-148.88;100.00;76390.69;5038086;28;20060;-85
2023/01/14 06:09:20;;;;;;;23.52;3.50;;;;;;;-148.88;100.00;76394.75;5022555;28;20025;-86
2023/01/14 06:11:50;;;;;;;21.50;4.13;;;;;;;-148.88;100.00;76402.88;5039373;28;20409;-86
2023/01/14 06:14:15;;;;;;;17.50;3.30;;;;;;;-148.88;100.00;76392.72;5022092;28;20456;-87
2023/01/14 06:16:41;;;;;;;12.25;3.45;;;;;;;-148.88;100.00;76392.72;5039594;28;20052;-86
2023/01/14 06:19:14;;;;;;;17.95;3.10;;;;;;;-148.88;100.00;76382.56;5039592;28;20052;-86
2023/01/14 06:21:40;;;;;;;17.70;4.50;;;;;;;-148.88;100.00;76382.56;5022320;28;20041;-86
2023/01/14 06:24:17;;;;;;;20.45;2.92;;;;;;;-148.88;100.00;76378.50;5021479;28;20052;-87
2023/01/14 06:26:43;;;;;;;10.50;3.00;;;;;;;-148.88;100.00;76374.44;5039853;28;20084;-87
2023/01/14 06:29:11;;;;;;;23.65;3.80;;;;;;;-148.88;100.00;76368.34;5038324;28;20026;-85
2023/01/14 06:31:38;;;;;;;9.07;3.10;;;;;;;-148.88;100.00;76358.19;5020083;28;20025;-85
2023/01/14 06:34:07;;;;;;;21.13;2.95;;;;;;;-148.88;100.00;76358.19;5034458;28;20056;-85
2023/01/14 06:36:50;;;;;;;19.88;3.97;;;;;;;-148.88;100.00;76362.25;5023562;28;20002;-86
2023/01/14 06:39:15;;;;;;;15.25;4.43;;;;;;;-148.88;100.00;76360.22;5037334;28;20087;-86
2023/01/14 06:41:43;;;;;;;17.08;3.13;;;;;;;-148.88;100.00;76356.16;5037314;28;20440;-88
2023/01/14 06:44:17;;;;;;;17.13;3.28;;;;;;;-148.88;100.00;76358.19;5016731;28;20128;-88
2023/01/14 06:47:00;;;;;;;14.27;3.00;;;;;;;-148.88;100.00;76354.13;5017478;28;20477;-89
2023/01/14 06:49:35;;;;;;;20.03;3.73;;;;;;;-148.88;100.00;76356.16;5016874;28;20175;-87
2023/01/14 06:52:11;;;;;;;16.67;3.45;;;;;;;-148.88;100.00;76352.09;5017216;28;20029;-87
2023/01/14 06:54:36;;;;;;;19.48;3.47;;;;;;;-148.88;100.00;76346.00;5016957;28;20032;-87
2023/01/14 06:57:03;;;;;;;21.73;2.72;;;;;;;-148.88;100.00;76346.00;5016866;28;20085;-87
2023/01/14 06:59:49;;;;;;;11.90;2.50;;;;;;;-148.88;100.00;76333.81;5017283;28;20462;-86
2023/01/14 07:02:17;;;;;;;20.60;2.55;;;;;;;-148.88;100.00;76333.81;5016408;28;20027;-86
2023/01/14 07:04:43;;;;;;;13.27;3.17;;;;;;;-148.88;100.00;76341.94;5016156;28;20042;-87
2023/01/14 07:07:15;;;;;;;16.20;2.75;;;;;;;-148.88;100.00;76323.66;5019194;28;20079;-85
2023/01/14 07:09:40;;;;;;;21.83;3.25;;;;;;;-148.88;100.00;76325.69;5017883;28;20025;-84
2023/01/14 07:12:08;;;;;;;12.90;2.28;;;;;;;-148.88;100.00;76327.72;5034916;28;20096;-86
2023/01/14 07:14:34;;;;;;;21.58;4.05;;;;;;;-148.88;100.00;76317.56;5017154;28;20024;-86
2023/01/14 07:17:01;;;;;;;18.85;3.35;;;;;;;-148.88;100.00;76321.63;5018096;28;20402;-85
2023/01/14 07:19:26;;;;;;;15.95;2.83;;;;;;;-148.88;100.00;76319.59;5019574;28;20064;-86
2023/01/14 07:21:52;;;;;;;15.57;2.78;;;;;;;-148.88;100.00;76301.31;5036823;28;20033;-85
2023/01/14 07:24:17;;;;;;;17.35;2.90;;;;;;;-148.88;100.00;76307.41;5019263;28;20029;-86
2023/01/14 07:27:09;;;;;;;11.05;2.15;;;;;;;-148.88;100.00;76305.38;5036987;28;20021;-86
2023/01/14 07:29:50;;;;;;;12.65;2.75;;;;;;;-148.88;100.00;76295.22;5035416;28;20037;-85
2023/01/14 07:32:41;;;;;;;16.38;2.50;;;;;;;-148.88;100.00;76297.25;5036122;28;20021;-86
2023/01/14 07:35:07;;;;;;;12.48;2.35;;;;;;;-148.88;100.00;76293.19;5018482;28;20018;-85
2023/01/14 07:37:32;;;;;;;17.38;3.80;;;;;;;-148.88;100.00;76289.13;5035667;28;20028;-85
2023/01/14 07:39:57;;;;;;;16.58;2.45;;;;;;;-148.88;100.00;76281.00;5035151;28;20152;-85
2023/01/14 07:42:22;;;;;;;23.92;2.60;;;;;;;-148.88;100.00;76281.00;5034313;28;20108;-86
2023/01/14 07:44:48;;;;;;;17.13;2.78;;;;;;;-148.88;100.00;76276.94;5033962;28;20025;-85
2023/01/14 07:47:15;;;;;;;9.00;2.40;;;;;;;-148.88;100.00;76270.84;5017730;28;20022;-85
2023/01/14 07:49:41;;;;;;;10.35;2.22;;;;;;;-148.88;100.00;76266.78;5020324;28;20505;-85
2023/01/14 07:52:07;;;;;;;18.20;2.58;;;;;;;-148.88;100.00;76268.81;5021171;28;20026;-86
2023/01/14 07:54:33;;;;;;;17.90;2.92;;;;;;;-148.88;100.00;76268.81;5022158;28;20017;-85
2023/01/14 07:57:01;;;;;;;13.18;2.75;;;;;;;-148.88;100.00;76262.72;5020926;28;20156;-87
2023/01/14 07:59:37;;;;;;;13.15;3.30;;;;;;;-148.88;100.00;76256.63;5020765;28;20057;-86
2023/01/14 08:02:14;;;;;;;13.88;2.95;;;;;;;-148.88;100.00;76244.44;5020470;28;20025;-88
2023/01/14 08:04:42;;;;;;;21.92;2.38;;;;;;;-148.88;100.00;76240.38;5019831;28;20026;-87
2023/01/14 08:07:23;;;;;;;14.35;3.13;;;;;;;-148.88;100.00;76232.25;5022400;28;20109;-87
2023/01/14 08:09:48;;;;;;;8.55;2.80;;;;;;;-148.88;100.00;76228.19;5021319;28;20033;-86
2023/01/14 08:12:20;;;;;;;11.75;2.70;;;;;;;-148.88;100.00;76224.13;5020036;28;20025;-86
2023/01/14 08:15:18;;;;;;;9.95;2.20;;;;;;;-148.88;100.00;76218.03;5020132;28;20028;-86
2023/01/14 08:17:40;;;;;;;14.80;4.15;;;;;;;-148.88;100.00;76211.94;5035351;28;20030;-85
2023/01/14 08:20:06;;;;;;;15.70;2.95;;;;;;;-148.88;100.00;76209.91;5021045;28;20032;-85
2023/01/14 08:22:31;;;;;;;14.73;1.95;;;;;;;-148.88;100.00;76207.88;5021454;28;20061;-86
2023/01/14 08:24:57;;;;;;;13.52;2.72;;;;;;;-148.88;100.00;76195.69;5021546;28;20132;-86
2023/01/14 08:27:27;;;;;;;12.43;2.03;;;;;;;-148.88;100.00;76195.69;5021765;28;20025;-85
2023/01/14 08:33:04;;;;;;;7.70;1.58;;;;;;;-148.88;100.00;76187.56;5015473;28;20093;-86
2023/01/14 08:35:29;;;;;;;10.68;2.03;;;;;;;-148.88;100.00;76189.59;5019488;28;20028;-86
2023/01/14 08:37:55;;;;;;;9.10;1.92;;;;;;;-148.88;100.00;76179.44;5019427;28;20021;-86
2023/01/14 08:40:20;;;;;;;11.43;1.85;;;;;;;-148.88;100.00;76171.31;5019537;28;20116;-86
2023/01/14 08:42:48;;;;;;;13.50;2.10;;;;;;;-148.88;99.90;76163.19;5020370;28;20033;-87
2023/01/14 08:45:17;;;;;;;18.00;2.60;;;;;;;-148.88;99.94;76161.16;5019160;28;20033;-87
2023/01/14 08:47:42;;;;;;;13.30;2.70;;;;;;;-148.88;99.33;76148.97;5018569;28;20029;-86
2023/01/14 08:50:11;;;;;;;10.60;2.25;;;;;;;-148.88;100.00;76142.88;5036375;28;20028;-90
2023/01/14 08:52:37;;;;;;;7.05;1.77;;;;;;;-148.88;100.00;76146.94;5018461;28;20033;-87
2023/01/14 08:55:03;;;;;;;14.77;3.08;;;;;;;-148.88;99.50;76134.72;5018209;28;20108;-86
2023/01/14 08:57:29;;;;;;;20.08;1.88;;;;;;;-148.88;99.42;76124.56;5018855;28;20520;-85
2023/01/14 08:59:56;;;;;;;14.95;2.35;;;;;;;-148.88;98.95;76114.41;5018657;28;20033;-87
2023/01/14 09:02:22;;;;;;;14.40;2.65;;;;;;;-148.88;98.79;76098.16;5036709;28;20025;-87
2023/01/14 09:04:59;;;;;;;7.82;1.67;;;;;;;-148.88;98.62;76094.09;5035846;28;20029;-86
2023/01/14 09:18:46;;;;;;;7.45;1.80;;;;;;;-148.88;100.00;76071.75;5036968;28;20055;-86
2023/01/14 09:21:11;;;;;;;9.70;1.80;;;;;;;-148.88;100.00;76085.97;5035372;28;20386;-86
2023/01/14 09:23:37;;;;;;;10.32;1.88;;;;;;;-148.88;100.00;76088.00;5034282;28;20024;-89
2023/01/14 09:26:02;;;;;;;13.07;2.60;;;;;;;-148.88;100.00;76090.03;5035314;28;20100;-88
2023/01/14 09:28:27;;;;;;;8.43;1.63;;;;;;;-148.88;100.00;76085.97;5034798;28;20474;-86
2023/01/14 09:30:53;;;;;;;8.10;1.90;;;;;;;-148.88;100.00;76110.34;5033985;28;20033;-86
2023/01/14 09:33:24;;;;;;;12.60;1.73;;;;;;;-148.88;100.00;76106.28;5034553;28;20022;-89
2023/01/14 09:35:49;;;;;;;12.88;2.70;;;;;;;-148.88;100.00;76108.31;5034094;28;20029;-88
2023/01/14 09:38:32;;;;;;;14.13;3.05;;;;;;;-148.88;100.00;76110.34;5034527;28;20547;-85
2023/01/14 09:40:58;;;;;;;8.93;1.75;;;;;;;-148.88;100.00;76122.56;5035425;28;20045;-86
2023/01/14 09:43:33;;;;;;;22.35;2.22;;;;;;;-148.88;100.00;76116.44;5036539;28;20028;-86
2023/01/14 09:46:02;;;;;;;11.45;2.00;;;;;;;-148.88;100.00;76120.53;5035009;28;20025;-86
2023/01/14 09:48:34;;;;;;;8.32;2.00;;;;;;;-148.88;100.00;76116.44;5036448;28;20029;-86
2023/01/14 09:51:21;;;;;;;9.88;2.10;;;;;;;-148.88;100.00;76116.44;5034662;28;20018;-86
2023/01/14 09:54:07;;;;;;;9.15;2.25;;;;;;;-148.88;100.00;76118.47;5052074;28;20409;-86
2023/01/14 09:57:07;;;;;;;11.23;1.90;;;;;;;-148.88;100.00;76108.31;5035260;28;20486;-89
2023/01/14 10:00:20;;;;;;;17.00;2.50;;;;;;;-148.88;100.00;76106.28;5033986;28;20037;-90
2023/01/14 10:04:17;;;;;;;11.55;1.73;;;;;;;-148.88;100.00;76098.16;5050573;28;20048;-91
2023/01/14 10:06:24;;;;;;;15.90;2.13;;;;;;;-148.88;100.00;76085.97;4986710;28;20155;-88
2023/01/14 10:09:49;;;;;;;10.38;2.13;;;;;;;-148.88;100.00;76077.84;5034830;28;20466;-86
2023/01/14 10:12:21;;;;;;;13.88;2.72;;;;;;;-148.88;100.00;76073.78;4956736;28;20484;-87
2023/01/14 10:14:58;;;;;;;20.92;3.03;;;;;;;-148.88;100.00;76065.66;5030467;22;20120;-81
2023/01/14 10:17:29;;;;;;;6.72;1.77;;;;;;;-148.88;100.00;76065.66;5038420;28;20062;-80
2023/01/14 10:19:54;;;;;;;11.93;2.38;;;;;;;-148.88;100.00;76057.53;5037832;28;20083;-79
2023/01/14 10:22:38;;;;;;;14.85;2.22;;;;;;;-148.88;100.00;76055.50;5039022;28;20030;-81
2023/01/14 10:25:12;;;;;;;9.48;1.80;;;;;;;-148.88;100.00;76043.31;5020851;28;20401;-81
2023/01/14 10:27:38;;;;;;;6.63;2.45;;;;;;;-148.88;100.00;76049.41;5040734;28;20034;-81
2023/01/14 10:31:59;;;;;;;13.82;2.30;;;;;;;-148.88;100.00;76027.06;5113673;27;20373;-80
2023/01/14 10:34:31;;;;;;;9.32;2.40;;;;;;;-148.88;100.00;76010.81;5112474;27;20084;-79
2023/01/14 10:36:57;;;;;;;13.25;2.28;;;;;;;-148.88;100.00;76002.69;5113712;28;20032;-80
2023/01/14 10:39:22;;;;;;;8.93;2.25;;;;;;;-148.88;100.00;75988.47;5116373;28;20107;-80
2023/01/14 10:41:48;;;;;;;11.65;2.03;;;;;;;-148.88;100.00;75986.44;5115791;28;20106;-79
2023/01/14 10:44:27;;;;;;;10.40;1.85;;;;;;;-148.88;100.00;75962.06;5114403;28;20034;-81
2023/01/14 10:46:56;;;;;;;11.65;3.10;;;;;;;-148.88;100.00;75949.88;5114211;28;20031;-81
2023/01/14 10:49:30;;;;;;;12.30;2.72;;;;;;;-148.88;100.00;75931.59;5115451;28;20045;-80
2023/01/14 10:51:57;;;;;;;13.32;2.22;;;;;;;-148.88;100.00;75927.53;5116178;28;20031;-81
2023/01/14 10:54:25;;;;;;;9.77;2.30;;;;;;;-148.88;100.00;75927.53;5113993;28;20498;-81
2023/01/14 10:57:14;;;;;;;11.00;2.20;;;;;;;-148.88;100.00;75915.34;5114918;28;20034;-82
2023/01/14 10:59:48;;;;;;;15.10;2.28;;;;;;;-148.88;100.00;75903.16;5113685;28;20480;-80
2023/01/14 11:02:19;;;;;;;10.40;1.73;;;;;;;-148.88;100.00;75893.00;5118088;28;20024;-81
2023/01/14 11:04:45;;;;;;;8.05;2.10;;;;;;;-148.88;100.00;75880.81;5118612;28;20016;-81
2023/01/14 11:07:21;;;;;;;15.57;3.10;;;;;;;-148.88;100.00;75864.56;5112264;28;20080;-79
2023/01/14 11:09:46;;;;;;;6.00;2.13;;;;;;;-148.88;100.00;75862.53;5109836;28;20482;-79
2023/01/14 11:12:32;;;;;;;8.18;2.00;;;;;;;-148.88;100.00;75840.19;5112710;28;20074;-80
2023/01/14 11:14:59;;;;;;;11.88;2.55;;;;;;;-148.88;100.00;75830.03;5113600;28;20122;-81
2023/01/14 11:17:30;;;;;;;13.52;2.42;;;;;;;-148.88;100.00;75821.91;5114785;28;20023;-79
2023/01/14 11:20:23;;;;;;;6.07;1.88;;;;;;;-148.88;100.00;75817.84;5114135;28;20370;-80
2023/01/14 11:23:00;;;;;;;5.63;1.88;;;;;;;-148.88;100.00;75807.69;5114395;28;20047;-80
2023/01/14 11:25:26;;;;;;;9.82;2.42;;;;;;;-148.88;100.00;75799.56;5114280;28;20027;-79
2023/01/14 11:27:52;;;;;;;9.32;1.90;;;;;;;-148.88;100.00;75791.44;5114098;28;20026;-80
2023/01/14 11:30:20;;;;;;;11.05;2.30;;;;;;;-148.88;100.00;75779.25;5113909;28;20030;-79
2023/01/14 11:32:49;;;;;;;11.55;2.67;;;;;;;-148.88;100.00;75763.00;5112947;28;20028;-79
2023/01/14 11:35:29;;;;;;;8.50;2.05;;;;;;;-148.88;100.00;75760.97;5113985;28;20107;-80
2023/01/14 11:37:56;;;;;;;8.57;2.08;;;;;;;-148.88;100.00;75740.66;5113986;28;20027;-79
2023/01/14 11:43:20;;;;;;;7.00;1.95;;;;;;;-148.88;100.00;75720.34;5098392;28;20390;-79
2023/01/14 11:45:46;;;;;;;7.47;1.75;;;;;;;-148.88;100.00;75720.34;5095453;28;20084;-80
2023/01/14 11:48:24;;;;;;;9.07;2.08;;;;;;;-148.88;100.00;75714.25;5099301;28;20080;-80
2023/01/14 11:50:57;;;;;;;8.02;2.22;;;;;;;-148.88;100.00;75691.91;5098446;28;20024;-80
2023/01/14 11:53:26;;;;;;;7.80;2.45;;;;;;;-148.88;100.00;75695.97;5100456;28;20027;-80
2023/01/14 11:55:56;;;;;;;7.13;2.13;;;;;;;-148.88;100.00;75683.78;5100281;28;20424;-80